Latest Coastal Weather Observations for Dennes Point

IDT60701

Issued at 7:22 am EDT Tuesday 7 February 2023 (issued every 10 minutes, with the page automatically refreshed every 10 minutes)

About coastal observations | Map of coastal stations | Coastal observations for TAS | Marine services | Other Formats
Station Details ID: 094255 Name: DENNES POINT Lat: -43.06 Lon: 147.36 Height: 5.67 m
Data from the previous 72 hours. | See also: Recent months at Dennes Point
Date/Time
EDT
Wind Sea
Height
m
Swell Vis
km
Cloud Weather Temp
°C
Press
MSL
hPa
Rain since
9am
mm
Dir  Spd
kts
Gust
kts
Height
m
Period
s
Dir
07/07:00am WSW 14 17 - - - - - - - 14.0 1015.3 0.0
07/06:30am SW 14 19 - - - - - - - 13.8 1015.4 0.0
07/06:00am WSW 12 15 - - - - - - - 13.9 1015.1 0.0
07/05:30am WSW 14 18 - - - - - - - 14.0 1014.6 0.0
07/05:00am WSW 13 19 - - - - - - - 13.7 1014.5 0.0
07/04:30am SW 14 22 - - - - - - - 14.2 1014.6 0.0
07/04:00am WSW 16 23 - - - - - - - 14.2 1014.5 0.0
07/03:30am WSW 12 16 - - - - - - - 14.1 1014.6 0.0
07/03:00am WSW 9 13 - - - - - - - 13.9 1014.7 0.0
07/02:30am SW 7 10 - - - - - - - 13.7 1014.8 0.0
07/02:00am WSW 9 13 - - - - - - - 14.3 1015.0 0.0
07/01:30am WSW 12 16 - - - - - - - 14.7 1015.0 0.0
07/01:00am WSW 14 18 - - - - - - - 14.7 1015.0 0.0
07/12:30am WSW 14 18 - - - - - - - 15.1 1015.0 0.0
07/12:00am WSW 15 21 - - - - - - - 15.2 1015.1 0.0
 
Date/Time
EDT
Wind Sea
Height
m
Swell Vis
km
Cloud Weather Temp
°C
Press
MSL
hPa
Rain since
9am
mm
Dir  Spd
kts
Gust
kts
Height
m
Period
s
Dir
06/11:30pm WSW 15 20 - - - - - - - 15.5 1014.9 0.0
06/11:00pm WSW 16 20 - - - - - - - 15.8 1015.0 0.0
06/10:30pm WSW 15 23 - - - - - - - 15.7 1014.8 0.0
06/10:00pm WSW 15 20 - - - - - - - 16.0 1014.6 0.0
06/09:30pm WSW 16 22 - - - - - - - 16.3 1014.1 0.0
06/09:00pm W 14 20 - - - - - - - 16.5 1013.7 0.0
06/08:30pm W 16 23 - - - - - - - 16.9 1013.5 0.0
06/08:00pm W 16 26 - - - - - - - 17.6 1013.3 0.0
06/07:59pm W 16 26 - - - - - - - 17.5 1013.3 0.0
06/07:30pm W 17 23 - - - - - - - 17.9 1013.1 0.0
06/07:00pm W 21 27 - - - - - - - 19.2 1012.7 0.0
06/06:30pm WSW 24 32 - - - - - - - 19.9 1012.3 0.0
06/06:00pm WSW 19 28 - - - - - - - 20.7 1012.2 0.0
06/05:54pm WSW 16 28 - - - - - - - 21.1 1012.1 0.0
06/05:30pm W 19 25 - - - - - - - 21.4 1012.3 0.0
06/05:00pm WSW 22 30 - - - - - - - 21.5 1012.0 0.0
06/04:51pm WSW 19 30 - - - - - - - 21.6 1012.1 0.0
06/04:30pm WSW 20 28 - - - - - - - 22.0 1012.2 0.0
06/04:00pm WSW 17 25 - - - - - - - 22.4 1012.5 0.0
06/03:34pm WSW 18 30 - - - - - - - 22.3 1012.6 0.0
06/03:30pm WSW 18 25 - - - - - - - 22.7 1012.7 0.0
06/03:16pm W 18 29 - - - - - - - 22.5 1012.7 0.0
06/03:00pm W 16 23 - - - - - - - 22.1 1012.9 0.0
06/02:49pm W 19 29 - - - - - - - 20.6 1013.1 0.0
06/02:30pm WSW 18 25 - - - - - - - 21.0 1013.0 0.0
06/02:00pm WSW 17 33 - - - - - - - 20.7 1013.3 0.0
06/01:56pm W 18 33 - - - - - - - 21.2 1012.9 0.0
06/01:30pm W 9 16 - - - - - - - 21.9 1013.0 0.0
06/01:00pm W 12 17 - - - - - - - 22.4 1013.0 0.0
06/12:30pm WNW 13 20 - - - - - - - 21.8 1013.3 0.0
06/12:00pm W 13 19 - - - - - - - 22.2 1013.3 0.0
06/11:30am W 16 23 - - - - - - - 21.1 1013.4 0.0
06/11:00am W 11 14 - - - - - - - 20.8 1013.4 0.0
06/10:30am W 15 23 - - - - - - - 19.0 1013.5 0.0
06/10:00am W 13 17 - - - - - - - 18.8 1013.4 0.0
06/09:30am W 9 13 - - - - - - - 18.6 1013.4 0.0
06/09:00am WSW 12 19 - - - - - - - 17.2 1013.4 0.0
06/08:49am W 15 19 - - - - - - - 17.3 1013.0 0.0
06/08:30am SW 6 9 - - - - - - - 18.4 1013.2 0.0
06/08:00am WSW 5 8 - - - - - - - 17.4 1013.0 0.0
06/07:30am WSW 8 10 - - - - - - - 16.5 1012.8 0.0
06/07:00am S 1 4 - - - - - - - 14.9 1012.7 0.0
06/06:30am NW 4 7 - - - - - - - 16.0 1012.2 0.0
06/06:00am NW 5 9 - - - - - - - 15.9 1012.0 0.0
06/05:30am NW 6 8 - - - - - - - 15.7 1012.1 0.0
06/05:00am WNW 7 9 - - - - - - - 15.7 1012.1 0.0
06/04:30am WNW 8 9 - - - - - - - 15.3 1012.3 0.0
06/04:00am WNW 5 7 - - - - - - - 15.0 1012.4 0.0
06/03:30am WNW 5 7 - - - - - - - 15.4 1012.4 0.0
06/03:00am WNW 8 13 - - - - - - - 15.5 1012.6 0.0
06/02:30am W 6 14 - - - - - - - 15.2 1012.6 0.0
06/02:00am W 9 13 - - - - - - - 15.1 1012.6 0.0
06/01:30am W 9 11 - - - - - - - 15.3 1012.6 0.0
06/01:00am W 7 9 - - - - - - - 14.8 1012.8 0.0
06/12:30am W 9 11 - - - - - - - 15.4 1012.8 0.0
06/12:00am W 10 14 - - - - - - - 15.8 1012.8 0.0
 
Date/Time
EDT
Wind Sea
Height
m
Swell Vis
km
Cloud Weather Temp
°C
Press
MSL
hPa
Rain since
9am
mm
Dir  Spd
kts
Gust
kts
Height
m
Period
s
Dir
05/11:30pm W 10 14 - - - - - - - 15.8 1012.8 0.0
05/11:00pm W 5 7 - - - - - - - 14.6 1013.2 0.0
05/10:30pm S 2 4 - - - - - - - 15.3 1013.3 0.0
05/10:00pm SSW 3 5 - - - - - - - 15.6 1013.3 0.0
05/09:30pm NW 3 7 - - - - - - - 16.5 1013.1 0.0
05/09:00pm ESE 2 3 - - - - - - - 15.8 1012.7 0.0
05/08:30pm E 4 5 - - - - - - - 16.6 1012.3 0.0
05/08:00pm ESE 5 6 - - - - - - - 17.3 1012.1 0.0
05/07:30pm ENE 6 7 - - - - - - - 18.0 1011.6 0.0
05/07:00pm E 5 6 - - - - - - - 18.6 1011.4 0.0
05/06:30pm ESE 6 8 - - - - - - - 18.8 1011.2 0.0
05/06:00pm ESE 8 10 - - - - - - - 18.8 1011.1 0.0
05/05:30pm ESE 8 10 - - - - - - - 19.1 1011.0 0.0
05/05:00pm ESE 8 11 - - - - - - - 19.8 1011.0 0.0
05/04:30pm ESE 10 12 - - - - - - - 19.9 1010.9 0.0
05/04:00pm ESE 10 13 - - - - - - - 19.9 1010.9 0.0
05/03:30pm ESE 10 13 - - - - - - - 20.1 1011.2 0.0
05/03:00pm ESE 12 16 - - - - - - - 19.9 1010.9 0.0
05/02:30pm SE 7 14 - - - - - - - 21.1 1011.1 0.0
05/02:00pm W 10 13 - - - - - - - 23.9 1011.1 0.0
05/01:30pm W 11 15 - - - - - - - 23.3 1011.1 0.0
05/01:00pm W 9 14 - - - - - - - 23.1 1011.2 0.0
05/12:30pm W 10 12 - - - - - - - 22.1 1011.1 0.0
05/12:00pm W 8 11 - - - - - - - 21.8 1011.1 0.0
05/11:30am SW 9 13 - - - - - - - 20.3 1011.1 0.0
05/11:00am WSW 9 13 - - - - - - - 19.9 1011.0 0.0
05/10:30am W 9 13 - - - - - - - 19.3 1010.9 0.0
05/10:00am WSW 12 17 - - - - - - - 18.1 1010.7 0.0
05/09:30am WSW 10 18 - - - - - - - 17.5 1010.6 0.0
05/09:00am SW 8 11 - - - - - - - 16.8 1010.5 5.4
05/08:30am WSW 4 6 - - - - - - - 16.1 1010.3 5.4
05/08:00am SW 5 7 - - - - - - - 15.0 1010.1 5.4
05/07:30am WSW 8 11 - - - - - - - 14.2 1009.6 5.4
05/07:00am WSW 10 13 - - - - - - - 13.5 1009.2 5.4
05/06:30am WSW 13 17 - - - - - - - 13.4 1008.4 5.4
05/06:00am WSW 16 20 - - - - - - - 13.7 1007.8 5.4
05/05:30am WSW 18 23 - - - - - - - 14.0 1007.3 5.4
05/05:00am WSW 15 19 - - - - - - - 14.0 1007.2 5.4
05/04:30am WSW 17 21 - - - - - - - 14.2 1006.8 5.4
05/04:00am WSW 16 23 - - - - - - - 14.1 1006.5 5.4
05/03:30am WSW 17 23 - - - - - - - 14.0 1006.2 5.4
05/03:00am WSW 14 19 - - - - - - - 14.2 1005.8 5.4
05/02:30am WSW 14 21 - - - - - - - 14.3 1005.8 5.4
05/02:00am SW 16 24 - - - - - - - 14.1 1005.2 5.4
05/01:30am SSW 11 19 - - - - - - - 13.7 1004.8 5.4
05/01:00am SW 12 17 - - - - - - - 14.3 1004.4 5.4
05/12:30am SW 12 16 - - - - - - - 14.0 1004.1 5.4
05/12:00am SW 14 22 - - - - - - - 14.6 1003.6 5.4
 
Date/Time
EDT
Wind Sea
Height
m
Swell Vis
km
Cloud Weather Temp
°C
Press
MSL
hPa
Rain since
9am
mm
Dir  Spd
kts
Gust
kts
Height
m
Period
s
Dir
04/11:41pm SW 15 25 - - - - - - - 14.5 1003.3 5.4
04/11:30pm SW 12 19 - - - - - - - 14.3 1003.3 5.4
04/11:00pm SW 11 16 - - - - - - - 14.6 1003.0 5.4
04/10:30pm WSW 13 17 - - - - - - - 14.7 1002.9 5.4
04/10:00pm SW 12 17 - - - - - - - 14.8 1002.6 5.4
04/09:30pm WSW 12 17 - - - - - - - 14.5 1002.3 5.4
04/09:00pm WSW 14 18 - - - - - - - 14.4 1001.6 5.4
04/08:30pm SW 11 16 - - - - - - - 13.9 1001.2 5.4
04/08:00pm SW 11 14 - - - - - - - 13.5 1000.9 5.4
04/07:30pm SSW 11 16 - - - - - - - 13.6 1000.4 5.4
04/07:00pm SSW 13 19 - - - - - - - 13.5 999.7 5.4
04/06:30pm SW 14 20 - - - - - - - 13.8 999.2 5.4
04/06:11pm SW 15 26 - - - - - - - 13.7 998.8 5.4
04/06:00pm SW 16 24 - - - - - - Recent precip. 13.7 998.7 5.4
04/05:30pm SSW 14 21 - - - - - - - 13.7 998.3 5.2
04/05:00pm SSW 15 21 - - - - - - - 14.3 997.9 4.8
04/04:30pm SW 18 26 - - - - - - - 15.4 997.4 4.6
04/04:12pm SW 15 26 - - - - - - - 15.7 997.3 4.6
04/04:00pm SW 16 26 - - - - - - - 15.9 997.1 4.6
04/03:30pm SW 15 23 - - - - - - - 15.7 996.8 4.6
04/03:00pm SSW 14 22 - - - - - - Recent precip. 15.7 996.5 4.6
04/02:30pm SW 14 23 - - - - - - - 15.6 996.4 4.6
04/02:00pm SW 12 17 - - - - - - - 15.4 996.4 4.4
04/01:30pm SW 14 21 - - - - - - - 15.4 996.1 4.4
04/01:00pm SW 14 22 - - - - - - - 15.4 996.0 4.4
04/12:30pm SW 10 15 - - - - - - - 14.4 995.9 4.4
04/12:00pm SW 11 17 - - - - - - Recent precip. 14.2 995.6 3.0
04/11:30am SW 8 12 - - - - - - - 14.0 995.5 2.0
04/11:00am SW 8 12 - - - - - - - 14.2 995.4 1.0
04/10:30am WSW 10 13 - - - - - - - 14.4 995.0 0.4
04/10:00am WNW 7 12 - - - - - - - 14.4 994.7 0.4
04/09:30am WNW 6 9 - - - - - - - 14.2 994.6 0.0
04/09:00am NW 6 9 - - - - - - Recent precip. 13.9 994.5 5.4
04/08:30am WNW 9 11 - - - - - - - 13.8 994.4 5.0
04/08:00am WNW 7 9 - - - - - - - 13.7 994.2 5.0
04/07:30am W 9 12 - - - - - - - 13.3 993.7 5.0

Other formats

Comma delimited format used in spreadsheet applications
http://www.bom.gov.au/fwo/IDT60701/IDT60701.94988.axf

JavaScript Object Notation format (JSON) in row-major order
http://www.bom.gov.au/fwo/IDT60701/IDT60701.94988.json

Data quality

Most of these data are generated automatically and are frequently updated. Quality checks on data are not normally performed. It is possible for incorrect values to appear. Refer to information at About Latest Weather Observations and please check the disclaimer before using these data.